Airfield :
LOGIN :

Register | Disclaimer

   EN    FR    IT 

 










Legend :    VFR   Marginal VFR   IFR   Intensive IFR   Very Intensive IFR
Visi :
Ceiling :
>= 8 km
>= 3000ft
5 to 8 km
1000 to 3000 ft
1500m to 5 km
500 to 1000 ft
800 to 1500m
200 to 500 ft
< 800m
< 200 ft
Symbols :   Thunderstorms  Fog  Heavy snow  Heavy precipitations  Wind > 20 kt
SIGMETs :     Misc.  Thunderstorms  Icing  Turbulence  Mountain Waves  Volcanic Ashes







- Airport Elevation : 16 ft
- IATA code : SDR


LEXJ - Santander Cantabria

CURRENT METAR :
  • 162200Z AUTO VRB01KT 9000 BKN023/// 18/16 Q1021

EXPIRED METARs :
  • 162130Z AUTO 09003KT 050V120 9999 OVC024/// 18/16 Q1021
  • 162100Z VRB01KT 8000 FEW014 OVC025 18/17 Q1022
  • 162030Z 12003KT 8000 FEW014 OVC025 18/17 Q1022
  • 162000Z VRB02KT 8000 FEW014 OVC020 18/17 Q1022
  • 161930Z 13002KT 8000 SCT014 OVC022 18/17 Q1023
  • 161900Z 09005KT 060V120 9000 SCT014 OVC020 18/17 Q1023

TAF TAF LEXJ
Valid from the 16 at 21:00 until the 17 at 21:00 UTC


162000Z 1621/1721 12003KT 9000 FEW015 BKN020 TX24/1712Z TN16/1706Z
PROB30
TEMPO 1621/1624 3000 BR BKN010
BECMG 1703/1707 19011KT
TEMPO 1707/1712 20015G26KT
BECMG 1711/1714 28009KT
PROB40
TEMPO 1712/1718 RA
PROB40
TEMPO 1712/1721 BKN010
No reported NOTAMs for that airfield.
1 SIGMET reported for the Madrid FIR (LECM) :
 
Embedded thunderstorms
LECM SIGMET 1 VALID 162135/162330 LEVA
LECM MADRID FIR/UIR EMBD TS OBS AT 2135Z S OF LINE N4220 W00840 - N4230 W008 TOP FL320 MOV N NC=



MET'MAP, your aeronautical weather chart ! - Copyright ORBIFLY December 2007 - Disclaimer

ORBIFLY MET'MAP TEAM :

Programming & Development : Alexandra Zaïnal
Concept & Development : Baudouin d'Aumeries
Co-Development & Prog : Marc-Olivier Méhu
Technical & hardware support : Manuel Goepfert

Contact : metmap@orbifly.com




SOURCES & CREDITS :

   NOAA